Butts, Georgia
Current Conditions -  °F | °C
As of 7:35 AM on Friday 31 Oct 2014 (Local Time) from KJYL Reporting Station
Clear Clear  
Wind Chill: 51°   Ceiling: Unl
Heat Index: 51°   Visibility: 10mi
Dew Point: 51°   Wind: 0mph
Humidity: 98%   Direction: NA
Pressure: 29.91"   Gusts: NA
Location:  32.7727°N, 81.9794°W
Report Text: KJYL 311135Z AUTO 00000KT 10SM CLR 11/10 A2991 RMK AO2 T01060103
Loading
Personal Weather Stations






























Interactive Weather Map
Tropical Storm Tracking
New forecast layout! Learn more

10-Day Weather Forecast

Advertisements
Track Severe Weather on mobile